Inchelium, Washington
Current Conditions -  °F | °C
As of 3:53 PM on Friday 19 Dec 2014 (Local Time) from KDEW Reporting Station
Overcast Overcast  
Wind Chill:   Ceiling: 1200
Heat Index:   Visibility: 10mi
Dew Point:   Wind: 5mph
Humidity: 89%   Direction: 210°SSW
Pressure: 29.94"   Gusts: NA
Location:  48.34°N, 118.25°W
Report Text: KDEW 192353Z AUTO 21004KT 10SM OVC012 04/03 A2994 RMK AO2 SLP153 60000 T00440028 10056 20044 52015
Loading
Personal Weather Stations






























Interactive Weather Map New forecast layout! Learn more

10-Day Weather Forecast

Advertisements
Track Severe Weather on mobile